sensor_id;sensor_type;location;lat;lon;timestamp;P1;durP1;ratioP1;P2;durP2;ratioP2
64235;SDS011;50564;47.402;9.740;2024-03-22T00:01:58;3.10;;;2.28;;
64235;SDS011;50564;47.402;9.740;2024-03-22T00:06:59;4.22;;;2.10;;
64235;SDS011;50564;47.402;9.740;2024-03-22T00:11:59;5.18;;;2.17;;
64235;SDS011;50564;47.402;9.740;2024-03-22T00:17:00;4.15;;;1.83;;
64235;SDS011;50564;47.402;9.740;2024-03-22T00:22:01;4.10;;;1.52;;
64235;SDS011;50564;47.402;9.740;2024-03-22T00:32:05;3.67;;;1.67;;
64235;SDS011;50564;47.402;9.740;2024-03-22T00:37:07;3.00;;;1.90;;
64235;SDS011;50564;47.402;9.740;2024-03-22T00:42:08;2.22;;;1.67;;
64235;SDS011;50564;47.402;9.740;2024-03-22T00:47:08;4.15;;;2.10;;
64235;SDS011;50564;47.402;9.740;2024-03-22T00:52:09;2.75;;;1.90;;
64235;SDS011;50564;47.402;9.740;2024-03-22T00:57:10;4.43;;;1.80;;
64235;SDS011;50564;47.402;9.740;2024-03-22T01:02:10;3.45;;;2.38;;
64235;SDS011;50564;47.402;9.740;2024-03-22T01:07:11;2.35;;;1.67;;
64235;SDS011;50564;47.402;9.740;2024-03-22T01:12:11;4.80;;;2.03;;
64235;SDS011;50564;47.402;9.740;2024-03-22T01:17:12;2.83;;;1.77;;
64235;SDS011;50564;47.402;9.740;2024-03-22T01:22:13;2.63;;;1.70;;
64235;SDS011;50564;47.402;9.740;2024-03-22T01:27:14;4.00;;;2.13;;
64235;SDS011;50564;47.402;9.740;2024-03-22T01:32:15;4.03;;;2.38;;
64235;SDS011;50564;47.402;9.740;2024-03-22T01:37:16;6.13;;;2.10;;
64235;SDS011;50564;47.402;9.740;2024-03-22T01:42:16;2.92;;;1.98;;
64235;SDS011;50564;47.402;9.740;2024-03-22T01:47:17;5.00;;;2.10;;
64235;SDS011;50564;47.402;9.740;2024-03-22T01:52:17;4.10;;;1.92;;
64235;SDS011;50564;47.402;9.740;2024-03-22T01:57:18;3.92;;;2.28;;
64235;SDS011;50564;47.402;9.740;2024-03-22T02:02:19;4.68;;;1.92;;
64235;SDS011;50564;47.402;9.740;2024-03-22T02:07:19;4.82;;;2.22;;
64235;SDS011;50564;47.402;9.740;2024-03-22T02:12:20;3.20;;;2.20;;
64235;SDS011;50564;47.402;9.740;2024-03-22T02:17:20;3.20;;;1.90;;
64235;SDS011;50564;47.402;9.740;2024-03-22T02:22:21;5.28;;;2.20;;
64235;SDS011;50564;47.402;9.740;2024-03-22T02:27:22;3.17;;;1.70;;
64235;SDS011;50564;47.402;9.740;2024-03-22T02:32:22;4.18;;;2.17;;
64235;SDS011;50564;47.402;9.740;2024-03-22T02:37:23;3.40;;;1.80;;
64235;SDS011;50564;47.402;9.740;2024-03-22T02:42:23;2.65;;;1.90;;
64235;SDS011;50564;47.402;9.740;2024-03-22T02:47:24;4.85;;;2.63;;
64235;SDS011;50564;47.402;9.740;2024-03-22T02:52:25;4.32;;;2.30;;
64235;SDS011;50564;47.402;9.740;2024-03-22T02:57:25;3.72;;;2.05;;
64235;SDS011;50564;47.402;9.740;2024-03-22T03:02:27;4.38;;;2.17;;
64235;SDS011;50564;47.402;9.740;2024-03-22T03:07:28;3.85;;;2.00;;
64235;SDS011;50564;47.402;9.740;2024-03-22T03:12:28;3.97;;;2.53;;
64235;SDS011;50564;47.402;9.740;2024-03-22T03:17:29;4.57;;;2.30;;
64235;SDS011;50564;47.402;9.740;2024-03-22T03:22:29;4.60;;;3.10;;
64235;SDS011;50564;47.402;9.740;2024-03-22T03:27:30;4.75;;;2.85;;
64235;SDS011;50564;47.402;9.740;2024-03-22T03:32:31;4.30;;;2.60;;
64235;SDS011;50564;47.402;9.740;2024-03-22T03:37:31;4.53;;;2.45;;
64235;SDS011;50564;47.402;9.740;2024-03-22T03:42:32;4.57;;;2.90;;
64235;SDS011;50564;47.402;9.740;2024-03-22T03:47:33;4.07;;;2.90;;
64235;SDS011;50564;47.402;9.740;2024-03-22T03:52:34;6.35;;;3.65;;
64235;SDS011;50564;47.402;9.740;2024-03-22T03:57:34;5.97;;;3.70;;
64235;SDS011;50564;47.402;9.740;2024-03-22T04:02:35;6.93;;;3.72;;
64235;SDS011;50564;47.402;9.740;2024-03-22T04:07:36;6.03;;;3.60;;
64235;SDS011;50564;47.402;9.740;2024-03-22T04:12:36;7.47;;;3.05;;
64235;SDS011;50564;47.402;9.740;2024-03-22T04:17:37;7.10;;;4.10;;
64235;SDS011;50564;47.402;9.740;2024-03-22T04:22:37;5.32;;;3.33;;
64235;SDS011;50564;47.402;9.740;2024-03-22T04:27:38;9.00;;;4.80;;
64235;SDS011;50564;47.402;9.740;2024-03-22T04:32:39;7.22;;;4.65;;
64235;SDS011;50564;47.402;9.740;2024-03-22T04:37:40;6.88;;;4.30;;
64235;SDS011;50564;47.402;9.740;2024-03-22T04:42:41;5.90;;;3.28;;
64235;SDS011;50564;47.402;9.740;2024-03-22T04:47:41;9.85;;;3.53;;
64235;SDS011;50564;47.402;9.740;2024-03-22T04:52:43;5.10;;;2.95;;
64235;SDS011;50564;47.402;9.740;2024-03-22T04:57:44;3.60;;;2.53;;
64235;SDS011;50564;47.402;9.740;2024-03-22T05:02:44;5.88;;;2.80;;
64235;SDS011;50564;47.402;9.740;2024-03-22T05:07:45;6.05;;;2.83;;
64235;SDS011;50564;47.402;9.740;2024-03-22T05:12:46;4.80;;;2.95;;
64235;SDS011;50564;47.402;9.740;2024-03-22T05:17:46;5.05;;;3.10;;
64235;SDS011;50564;47.402;9.740;2024-03-22T05:22:47;41.70;;;18.23;;
64235;SDS011;50564;47.402;9.740;2024-03-22T05:27:48;53.50;;;23.27;;
64235;SDS011;50564;47.402;9.740;2024-03-22T05:32:48;26.52;;;13.30;;
64235;SDS011;50564;47.402;9.740;2024-03-22T05:37:50;13.50;;;7.50;;
64235;SDS011;50564;47.402;9.740;2024-03-22T05:42:50;12.77;;;7.10;;
64235;SDS011;50564;47.402;9.740;2024-03-22T05:47:51;7.75;;;4.88;;
64235;SDS011;50564;47.402;9.740;2024-03-22T05:52:52;7.15;;;4.40;;
64235;SDS011;50564;47.402;9.740;2024-03-22T05:57:52;13.73;;;8.38;;
64235;SDS011;50564;47.402;9.740;2024-03-22T06:02:53;11.23;;;7.10;;
64235;SDS011;50564;47.402;9.740;2024-03-22T06:07:54;8.07;;;5.75;;
64235;SDS011;50564;47.402;9.740;2024-03-22T06:12:54;12.10;;;6.50;;
64235;SDS011;50564;47.402;9.740;2024-03-22T06:17:55;8.07;;;4.68;;
64235;SDS011;50564;47.402;9.740;2024-03-22T06:22:55;6.15;;;3.70;;
64235;SDS011;50564;47.402;9.740;2024-03-22T06:27:57;7.20;;;4.20;;
64235;SDS011;50564;47.402;9.740;2024-03-22T06:32:57;7.40;;;4.45;;
64235;SDS011;50564;47.402;9.740;2024-03-22T06:37:58;6.55;;;3.50;;
64235;SDS011;50564;47.402;9.740;2024-03-22T06:42:59;6.45;;;3.58;;
64235;SDS011;50564;47.402;9.740;2024-03-22T06:48:00;6.47;;;3.17;;
64235;SDS011;50564;47.402;9.740;2024-03-22T06:53:00;7.03;;;3.67;;
64235;SDS011;50564;47.402;9.740;2024-03-22T06:58:01;5.68;;;2.95;;
64235;SDS011;50564;47.402;9.740;2024-03-22T07:03:02;6.25;;;2.80;;
64235;SDS011;50564;47.402;9.740;2024-03-22T07:08:03;6.65;;;2.88;;
64235;SDS011;50564;47.402;9.740;2024-03-22T07:13:04;6.43;;;2.50;;
64235;SDS011;50564;47.402;9.740;2024-03-22T07:18:04;5.15;;;3.10;;
64235;SDS011;50564;47.402;9.740;2024-03-22T07:23:06;8.45;;;3.20;;
64235;SDS011;50564;47.402;9.740;2024-03-22T07:28:06;9.10;;;3.30;;
64235;SDS011;50564;47.402;9.740;2024-03-22T07:33:07;5.03;;;2.72;;
64235;SDS011;50564;47.402;9.740;2024-03-22T07:38:08;4.95;;;2.50;;
64235;SDS011;50564;47.402;9.740;2024-03-22T07:43:08;6.63;;;2.60;;
64235;SDS011;50564;47.402;9.740;2024-03-22T07:48:09;9.07;;;3.03;;
64235;SDS011;50564;47.402;9.740;2024-03-22T07:53:10;6.47;;;3.22;;
64235;SDS011;50564;47.402;9.740;2024-03-22T07:58:13;6.63;;;2.97;;
64235;SDS011;50564;47.402;9.740;2024-03-22T08:03:15;7.57;;;2.65;;
64235;SDS011;50564;47.402;9.740;2024-03-22T08:08:16;3.22;;;2.30;;
64235;SDS011;50564;47.402;9.740;2024-03-22T08:13:17;7.22;;;2.40;;
64235;SDS011;50564;47.402;9.740;2024-03-22T08:18:18;4.97;;;2.42;;
64235;SDS011;50564;47.402;9.740;2024-03-22T08:23:19;4.20;;;2.50;;
64235;SDS011;50564;47.402;9.740;2024-03-22T08:28:20;4.30;;;2.53;;
64235;SDS011;50564;47.402;9.740;2024-03-22T08:33:21;4.93;;;2.35;;
64235;SDS011;50564;47.402;9.740;2024-03-22T08:38:21;5.97;;;2.38;;
64235;SDS011;50564;47.402;9.740;2024-03-22T08:43:23;5.85;;;2.35;;
64235;SDS011;50564;47.402;9.740;2024-03-22T08:48:26;5.47;;;2.53;;
64235;SDS011;50564;47.402;9.740;2024-03-22T08:53:26;4.97;;;2.30;;
64235;SDS011;50564;47.402;9.740;2024-03-22T08:58:27;3.83;;;2.20;;
64235;SDS011;50564;47.402;9.740;2024-03-22T09:03:27;3.30;;;2.30;;
64235;SDS011;50564;47.402;9.740;2024-03-22T09:08:28;4.38;;;2.15;;
64235;SDS011;50564;47.402;9.740;2024-03-22T09:13:30;3.90;;;2.45;;
64235;SDS011;50564;47.402;9.740;2024-03-22T09:18:31;3.95;;;1.95;;
64235;SDS011;50564;47.402;9.740;2024-03-22T09:23:33;6.03;;;2.20;;
64235;SDS011;50564;47.402;9.740;2024-03-22T09:28:34;4.80;;;1.88;;
64235;SDS011;50564;47.402;9.740;2024-03-22T09:33:34;6.22;;;2.08;;
64235;SDS011;50564;47.402;9.740;2024-03-22T09:38:35;5.45;;;2.10;;
64235;SDS011;50564;47.402;9.740;2024-03-22T09:43:36;4.15;;;2.20;;
64235;SDS011;50564;47.402;9.740;2024-03-22T09:48:38;4.80;;;1.98;;
64235;SDS011;50564;47.402;9.740;2024-03-22T09:53:41;4.95;;;1.90;;
64235;SDS011;50564;47.402;9.740;2024-03-22T09:58:46;4.75;;;1.85;;
64235;SDS011;50564;47.402;9.740;2024-03-22T10:03:46;3.75;;;1.90;;
64235;SDS011;50564;47.402;9.740;2024-03-22T10:08:48;5.88;;;1.98;;
64235;SDS011;50564;47.402;9.740;2024-03-22T10:13:49;3.03;;;1.95;;
64235;SDS011;50564;47.402;9.740;2024-03-22T10:18:51;3.78;;;1.88;;
64235;SDS011;50564;47.402;9.740;2024-03-22T10:23:53;2.80;;;1.80;;
64235;SDS011;50564;47.402;9.740;2024-03-22T10:28:54;5.47;;;1.90;;
64235;SDS011;50564;47.402;9.740;2024-03-22T10:33:55;3.53;;;1.77;;
64235;SDS011;50564;47.402;9.740;2024-03-22T10:38:55;4.78;;;1.90;;
64235;SDS011;50564;47.402;9.740;2024-03-22T10:43:56;2.92;;;1.90;;
64235;SDS011;50564;47.402;9.740;2024-03-22T10:48:58;4.45;;;2.30;;
64235;SDS011;50564;47.402;9.740;2024-03-22T10:53:59;4.05;;;2.78;;
64235;SDS011;50564;47.402;9.740;2024-03-22T10:59:03;4.32;;;3.00;;
64235;SDS011;50564;47.402;9.740;2024-03-22T11:04:04;4.90;;;2.80;;
64235;SDS011;50564;47.402;9.740;2024-03-22T11:09:09;4.07;;;2.80;;
64235;SDS011;50564;47.402;9.740;2024-03-22T11:14:10;2.78;;;2.05;;
64235;SDS011;50564;47.402;9.740;2024-03-22T11:19:11;9.20;;;3.40;;
64235;SDS011;50564;47.402;9.740;2024-03-22T11:24:12;8.55;;;2.75;;
64235;SDS011;50564;47.402;9.740;2024-03-22T11:29:14;4.03;;;1.88;;
64235;SDS011;50564;47.402;9.740;2024-03-22T11:34:17;5.90;;;3.00;;
64235;SDS011;50564;47.402;9.740;2024-03-22T11:39:17;6.72;;;3.65;;
64235;SDS011;50564;47.402;9.740;2024-03-22T11:44:18;5.15;;;3.42;;
64235;SDS011;50564;47.402;9.740;2024-03-22T11:49:19;4.72;;;3.03;;
64235;SDS011;50564;47.402;9.740;2024-03-22T11:54:20;6.88;;;3.13;;
64235;SDS011;50564;47.402;9.740;2024-03-22T11:59:21;7.05;;;3.08;;
64235;SDS011;50564;47.402;9.740;2024-03-22T12:04:22;5.82;;;2.60;;
64235;SDS011;50564;47.402;9.740;2024-03-22T12:09:22;6.88;;;3.15;;
64235;SDS011;50564;47.402;9.740;2024-03-22T12:14:23;8.60;;;2.83;;
64235;SDS011;50564;47.402;9.740;2024-03-22T12:19:24;5.05;;;3.10;;
64235;SDS011;50564;47.402;9.740;2024-03-22T12:24:25;3.35;;;2.20;;
64235;SDS011;50564;47.402;9.740;2024-03-22T12:29:25;4.13;;;2.42;;
64235;SDS011;50564;47.402;9.740;2024-03-22T12:34:26;3.50;;;2.00;;
64235;SDS011;50564;47.402;9.740;2024-03-22T12:39:27;5.40;;;2.80;;
64235;SDS011;50564;47.402;9.740;2024-03-22T12:44:28;4.80;;;2.53;;
64235;SDS011;50564;47.402;9.740;2024-03-22T12:49:29;5.88;;;2.63;;
64235;SDS011;50564;47.402;9.740;2024-03-22T12:54:29;6.20;;;2.55;;
64235;SDS011;50564;47.402;9.740;2024-03-22T12:59:30;4.95;;;3.28;;
64235;SDS011;50564;47.402;9.740;2024-03-22T13:04:30;5.63;;;2.20;;
64235;SDS011;50564;47.402;9.740;2024-03-22T13:09:31;6.03;;;2.40;;
64235;SDS011;50564;47.402;9.740;2024-03-22T13:14:32;4.63;;;2.15;;
64235;SDS011;50564;47.402;9.740;2024-03-22T13:19:32;5.70;;;2.83;;
64235;SDS011;50564;47.402;9.740;2024-03-22T13:24:33;5.90;;;2.65;;
64235;SDS011;50564;47.402;9.740;2024-03-22T13:29:35;7.07;;;3.17;;
64235;SDS011;50564;47.402;9.740;2024-03-22T13:34:39;5.78;;;2.95;;
64235;SDS011;50564;47.402;9.740;2024-03-22T13:39:39;4.32;;;2.53;;
64235;SDS011;50564;47.402;9.740;2024-03-22T13:44:41;4.93;;;2.30;;
64235;SDS011;50564;47.402;9.740;2024-03-22T13:49:42;8.32;;;2.47;;
64235;SDS011;50564;47.402;9.740;2024-03-22T13:54:43;5.05;;;2.30;;
64235;SDS011;50564;47.402;9.740;2024-03-22T13:59:43;4.78;;;2.38;;
64235;SDS011;50564;47.402;9.740;2024-03-22T14:04:44;6.20;;;2.47;;
64235;SDS011;50564;47.402;9.740;2024-03-22T14:09:45;3.45;;;2.13;;
64235;SDS011;50564;47.402;9.740;2024-03-22T14:14:46;5.22;;;2.55;;
64235;SDS011;50564;47.402;9.740;2024-03-22T14:19:47;4.90;;;2.40;;
64235;SDS011;50564;47.402;9.740;2024-03-22T14:24:47;4.45;;;2.42;;
64235;SDS011;50564;47.402;9.740;2024-03-22T14:29:48;4.65;;;2.22;;
64235;SDS011;50564;47.402;9.740;2024-03-22T14:34:48;3.42;;;1.90;;
64235;SDS011;50564;47.402;9.740;2024-03-22T14:39:49;3.60;;;1.90;;
64235;SDS011;50564;47.402;9.740;2024-03-22T14:44:50;4.85;;;2.03;;
64235;SDS011;50564;47.402;9.740;2024-03-22T14:49:50;5.15;;;1.70;;
64235;SDS011;50564;47.402;9.740;2024-03-22T14:54:51;2.63;;;1.75;;
64235;SDS011;50564;47.402;9.740;2024-03-22T14:59:52;3.47;;;1.55;;
64235;SDS011;50564;47.402;9.740;2024-03-22T15:04:53;5.13;;;1.70;;
64235;SDS011;50564;47.402;9.740;2024-03-22T15:09:54;4.95;;;1.70;;
64235;SDS011;50564;47.402;9.740;2024-03-22T15:14:55;3.40;;;1.50;;
64235;SDS011;50564;47.402;9.740;2024-03-22T15:19:55;3.35;;;1.55;;
64235;SDS011;50564;47.402;9.740;2024-03-22T15:24:56;2.85;;;1.70;;
64235;SDS011;50564;47.402;9.740;2024-03-22T15:29:56;4.22;;;1.30;;
64235;SDS011;50564;47.402;9.740;2024-03-22T15:34:57;4.70;;;1.88;;
64235;SDS011;50564;47.402;9.740;2024-03-22T15:39:58;2.00;;;1.48;;
64235;SDS011;50564;47.402;9.740;2024-03-22T15:44:59;2.80;;;1.80;;
64235;SDS011;50564;47.402;9.740;2024-03-22T15:50:03;2.55;;;1.45;;
64235;SDS011;50564;47.402;9.740;2024-03-22T15:55:04;1.73;;;1.33;;
64235;SDS011;50564;47.402;9.740;2024-03-22T16:00:06;3.10;;;1.48;;
64235;SDS011;50564;47.402;9.740;2024-03-22T16:05:13;1.73;;;1.30;;
64235;SDS011;50564;47.402;9.740;2024-03-22T16:10:14;2.70;;;1.23;;
64235;SDS011;50564;47.402;9.740;2024-03-22T16:15:14;2.17;;;1.00;;
64235;SDS011;50564;47.402;9.740;2024-03-22T16:20:16;3.10;;;1.30;;
64235;SDS011;50564;47.402;9.740;2024-03-22T16:25:17;3.20;;;1.27;;
64235;SDS011;50564;47.402;9.740;2024-03-22T16:30:17;1.95;;;1.27;;
64235;SDS011;50564;47.402;9.740;2024-03-22T16:35:18;2.33;;;1.10;;
64235;SDS011;50564;47.402;9.740;2024-03-22T16:40:19;4.68;;;1.60;;
64235;SDS011;50564;47.402;9.740;2024-03-22T16:45:20;2.28;;;1.67;;
64235;SDS011;50564;47.402;9.740;2024-03-22T16:50:21;2.70;;;1.30;;
64235;SDS011;50564;47.402;9.740;2024-03-22T16:55:21;3.03;;;1.33;;
64235;SDS011;50564;47.402;9.740;2024-03-22T17:00:24;1.58;;;1.27;;
64235;SDS011;50564;47.402;9.740;2024-03-22T17:05:25;3.58;;;1.40;;
64235;SDS011;50564;47.402;9.740;2024-03-22T17:10:25;3.35;;;1.50;;
64235;SDS011;50564;47.402;9.740;2024-03-22T17:15:26;3.92;;;1.52;;
64235;SDS011;50564;47.402;9.740;2024-03-22T17:20:27;3.28;;;1.50;;
64235;SDS011;50564;47.402;9.740;2024-03-22T17:25:29;3.30;;;1.33;;
64235;SDS011;50564;47.402;9.740;2024-03-22T17:30:29;3.08;;;1.40;;
64235;SDS011;50564;47.402;9.740;2024-03-22T17:35:30;3.22;;;1.83;;
64235;SDS011;50564;47.402;9.740;2024-03-22T17:40:30;5.93;;;2.38;;
64235;SDS011;50564;47.402;9.740;2024-03-22T17:45:32;6.43;;;1.98;;
64235;SDS011;50564;47.402;9.740;2024-03-22T17:50:32;2.15;;;1.55;;
64235;SDS011;50564;47.402;9.740;2024-03-22T17:55:33;2.72;;;1.58;;
64235;SDS011;50564;47.402;9.740;2024-03-22T18:00:34;2.75;;;1.60;;
64235;SDS011;50564;47.402;9.740;2024-03-22T18:05:34;4.47;;;2.10;;
64235;SDS011;50564;47.402;9.740;2024-03-22T18:10:35;4.13;;;2.08;;
64235;SDS011;50564;47.402;9.740;2024-03-22T18:15:38;4.85;;;1.90;;
64235;SDS011;50564;47.402;9.740;2024-03-22T18:20:39;3.90;;;1.75;;
64235;SDS011;50564;47.402;9.740;2024-03-22T18:25:40;4.30;;;2.05;;
64235;SDS011;50564;47.402;9.740;2024-03-22T18:30:41;5.53;;;2.90;;
64235;SDS011;50564;47.402;9.740;2024-03-22T18:35:42;8.80;;;4.20;;
64235;SDS011;50564;47.402;9.740;2024-03-22T18:40:43;7.65;;;5.05;;
64235;SDS011;50564;47.402;9.740;2024-03-22T18:45:44;6.43;;;3.38;;
64235;SDS011;50564;47.402;9.740;2024-03-22T18:50:44;4.03;;;2.30;;
64235;SDS011;50564;47.402;9.740;2024-03-22T18:55:47;4.57;;;2.40;;
64235;SDS011;50564;47.402;9.740;2024-03-22T19:00:50;7.45;;;2.83;;
64235;SDS011;50564;47.402;9.740;2024-03-22T19:05:51;5.72;;;2.38;;
64235;SDS011;50564;47.402;9.740;2024-03-22T19:10:51;6.30;;;2.22;;
64235;SDS011;50564;47.402;9.740;2024-03-22T19:15:56;4.35;;;2.30;;
64235;SDS011;50564;47.402;9.740;2024-03-22T19:20:57;4.38;;;1.70;;
64235;SDS011;50564;47.402;9.740;2024-03-22T19:25:58;2.72;;;1.48;;
64235;SDS011;50564;47.402;9.740;2024-03-22T19:30:59;4.50;;;1.90;;
64235;SDS011;50564;47.402;9.740;2024-03-22T19:35:59;3.78;;;2.08;;
64235;SDS011;50564;47.402;9.740;2024-03-22T19:46:04;3.22;;;1.90;;
64235;SDS011;50564;47.402;9.740;2024-03-22T19:51:06;2.30;;;1.73;;
64235;SDS011;50564;47.402;9.740;2024-03-22T19:56:07;4.85;;;2.10;;
64235;SDS011;50564;47.402;9.740;2024-03-22T20:01:08;4.50;;;2.28;;
64235;SDS011;50564;47.402;9.740;2024-03-22T20:06:09;5.85;;;2.90;;
64235;SDS011;50564;47.402;9.740;2024-03-22T20:11:09;6.47;;;2.47;;
64235;SDS011;50564;47.402;9.740;2024-03-22T20:16:10;3.78;;;1.75;;
64235;SDS011;50564;47.402;9.740;2024-03-22T20:21:10;2.75;;;1.60;;
64235;SDS011;50564;47.402;9.740;2024-03-22T20:26:11;4.57;;;2.00;;
64235;SDS011;50564;47.402;9.740;2024-03-22T20:31:12;2.88;;;1.80;;
64235;SDS011;50564;47.402;9.740;2024-03-22T20:36:14;5.40;;;1.85;;
